Weather at Aviosuperficie Divinangelo

Public forecast

Using degrees Celsius for public forecast. Weather courtesy of forecast.io.

Closest aviation weather report (METAR) to Aviosuperficie Divinangelo

Closest report is Latina Air Base, 6.7 nm (12.3 km) NW.

2024/07/22 10:55 (retrieved 39 minutes ago)

LIRL 221055Z /////KT 9999 SCT030 SCT060 25/20 Q1008 RMK BKN MON LIB NC VIS MIN 9999 WIND THR12 /////KT WIND THR30 06008KT BLU

Closest aviation forecast (TAF) to Aviosuperficie Divinangelo

Closest forecast is Ciampino–G. B. Pastine International Airport, 27.5 nm (50.9 km) NW.

2024/07/22 06:00 (retrieved 6 hours ago)

TAF LIRA 220500Z 2206/2306 VRB05KT 9999 SCT040 PROB40 TEMPO 2206/2209 TSRA TEMPO 2212/2218 TSRA BECMG 2216/2218 VRB05KT